createdAt,value
2023-05-01T00:00:51.229Z,44.60
2023-05-01T00:03:27.905Z,45.70
2023-05-01T00:05:51.967Z,56.70
2023-05-01T00:08:26.221Z,50.20
2023-05-01T00:10:51.400Z,52.10
2023-05-01T00:13:22.917Z,50.50
2023-05-01T00:15:57.485Z,46.00
2023-05-01T00:18:33.614Z,47.70
2023-05-01T00:21:08.302Z,45.50
2023-05-01T00:23:44.303Z,39.20
2023-05-01T00:26:38.835Z,47.50
2023-05-01T00:29:13.603Z,36.50
2023-05-01T00:31:48.902Z,39.20
2023-05-01T00:34:16.732Z,40.70
2023-05-01T00:36:50.628Z,71.20
2023-05-01T00:39:26.069Z,51.70
2023-05-01T00:42:01.821Z,58.60
2023-05-01T00:44:37.097Z,58.10
2023-05-01T00:47:11.908Z,57.90
2023-05-01T00:49:35.045Z,60.80
2023-05-01T00:52:13.270Z,64.10
2023-05-01T00:54:53.237Z,72.60
2023-05-01T00:57:29.788Z,47.40
2023-05-01T01:00:04.010Z,43.90
2023-05-01T01:02:38.330Z,48.90
2023-05-01T01:05:13.563Z,55.70
2023-05-01T01:07:59.551Z,55.80
2023-05-01T01:10:39.205Z,40.90
2023-05-01T01:13:24.225Z,43.50
2023-05-01T01:16:03.097Z,48.60
2023-05-01T01:18:44.070Z,59.50
2023-05-01T01:21:16.684Z,45.80
2023-05-01T01:24:02.647Z,35.60
2023-05-01T01:26:53.389Z,41.20
2023-05-01T01:29:44.928Z,46.40
2023-05-01T01:32:32.821Z,34.20
2023-05-01T01:35:11.686Z,34.50
2023-05-01T01:37:53.111Z,34.90
2023-05-01T01:40:20.664Z,33.70
2023-05-01T01:43:03.067Z,24.40
2023-05-01T01:45:30.681Z,22.60
2023-05-01T01:48:00.997Z,34.20
2023-05-01T01:50:37.841Z,21.20
2023-05-01T01:53:15.691Z,17.00
2023-05-01T01:55:52.322Z,23.30
2023-05-01T01:58:20.771Z,20.20
2023-05-01T02:00:48.046Z,49.70
2023-05-01T02:03:17.114Z,34.60
2023-05-01T02:05:54.755Z,41.50
2023-05-01T02:08:32.895Z,43.70
2023-05-01T02:11:08.795Z,32.50
2023-05-01T02:13:46.603Z,33.20
2023-05-01T02:16:23.208Z,45.20
2023-05-01T02:18:53.969Z,29.20
2023-05-01T02:21:29.728Z,39.10
2023-05-01T02:23:57.723Z,45.20
2023-05-01T02:26:29.603Z,35.50
2023-05-01T02:28:45.678Z,29.20
2023-05-01T02:31:02.994Z,66.30
2023-05-01T02:33:20.763Z,46.40
2023-05-01T02:35:45.538Z,31.70
2023-05-01T02:38:21.263Z,30.20
2023-05-01T02:40:42.247Z,50.40
2023-05-01T02:43:00.509Z,39.50
2023-05-01T02:45:28.277Z,29.00
2023-05-01T02:47:56.432Z,44.00
2023-05-01T02:50:27.199Z,33.70
2023-05-01T02:52:43.366Z,46.70
2023-05-01T02:55:10.160Z,61.80
2023-05-01T02:57:25.498Z,45.40
2023-05-01T03:00:03.436Z,52.20
2023-05-01T03:02:37.706Z,39.90
2023-05-01T03:05:13.840Z,54.50
2023-05-01T03:07:37.447Z,27.90
2023-05-01T03:10:00.807Z,35.20
2023-05-01T03:12:16.378Z,36.90
2023-05-01T03:14:46.261Z,49.40
2023-05-01T03:17:04.074Z,55.40
2023-05-01T03:19:28.195Z,55.30
2023-05-01T03:21:46.228Z,57.80
2023-05-01T03:24:22.482Z,42.20
2023-05-01T03:26:37.100Z,51.20
2023-05-01T03:28:52.514Z,55.70
2023-05-01T03:31:15.966Z,51.70
2023-05-01T03:33:42.513Z,57.00
2023-05-01T03:36:20.626Z,60.00
2023-05-01T03:38:48.776Z,46.90
2023-05-01T03:41:26.509Z,42.20
2023-05-01T03:44:09.665Z,32.90
2023-05-01T03:46:27.541Z,47.70
2023-05-01T03:48:42.367Z,59.60
2023-05-01T03:50:57.752Z,49.10
2023-05-01T03:53:22.643Z,54.60
2023-05-01T03:55:38.066Z,40.60
2023-05-01T03:57:54.317Z,48.00
2023-05-01T04:00:20.846Z,30.00
2023-05-01T04:02:39.389Z,47.50
2023-05-01T04:05:03.064Z,48.70
2023-05-01T04:07:37.819Z,46.60
2023-05-01T04:09:57.396Z,38.20
2023-05-01T04:12:32.790Z,38.40
2023-05-01T04:14:48.319Z,56.90
2023-05-01T04:17:22.664Z,41.80
2023-05-01T04:19:58.246Z,31.70
2023-05-01T04:22:18.969Z,38.60
2023-05-01T04:24:45.100Z,39.50
2023-05-01T04:27:37.427Z,37.30
2023-05-01T04:32:44.844Z,45.60
2023-05-01T04:35:10.385Z,41.70
2023-05-01T04:37:45.205Z,36.60
2023-05-01T04:40:19.595Z,45.70
2023-05-01T04:42:56.713Z,48.90
2023-05-01T04:45:23.574Z,40.20
2023-05-01T04:48:00.281Z,32.80
2023-05-01T04:50:35.378Z,52.40
2023-05-01T04:53:09.507Z,10.90
2023-05-01T04:56:05.649Z,8.80
2023-05-01T04:58:55.547Z,13.80
2023-05-01T05:01:53.026Z,22.40
2023-05-01T05:04:31.994Z,26.60
2023-05-01T05:07:10.727Z,23.90
2023-05-01T05:09:47.225Z,24.70
2023-05-01T05:12:21.697Z,33.00
2023-05-01T05:14:56.659Z,40.90
2023-05-01T05:17:25.346Z,24.70
2023-05-01T05:19:51.295Z,29.80
2023-05-01T05:22:18.549Z,32.10
2023-05-01T05:24:56.760Z,36.10
2023-05-01T05:27:37.904Z,44.30
2023-05-01T05:30:15.189Z,42.00
2023-05-01T05:32:49.768Z,29.60
2023-05-01T05:35:26.700Z,35.20
2023-05-01T05:38:02.104Z,20.70
2023-05-01T05:40:40.434Z,23.40
2023-05-01T05:43:14.452Z,46.90
2023-05-01T05:45:52.930Z,15.50
2023-05-01T05:48:29.303Z,14.30
2023-05-01T05:50:55.649Z,13.90
2023-05-01T05:53:30.458Z,11.00
2023-05-01T05:56:06.088Z,14.90
2023-05-01T05:58:41.448Z,28.10
2023-05-01T06:01:10.532Z,20.70
2023-05-01T06:03:45.940Z,38.10
2023-05-01T06:06:22.077Z,47.50
2023-05-01T06:08:57.265Z,35.10
2023-05-01T06:11:25.449Z,34.10
2023-05-01T06:14:00.802Z,45.70
2023-05-01T06:16:35.448Z,44.50
2023-05-01T06:19:12.060Z,60.00
2023-05-01T06:21:48.359Z,41.10
2023-05-01T06:24:22.631Z,54.80
2023-05-01T06:27:00.820Z,45.60
2023-05-01T06:29:36.300Z,40.10
2023-05-01T06:32:13.898Z,38.40
2023-05-01T06:34:48.405Z,32.00
2023-05-01T06:37:22.297Z,28.30
2023-05-01T06:39:57.815Z,22.90
2023-05-01T06:42:32.356Z,45.80
2023-05-01T06:45:07.484Z,33.60
2023-05-01T06:47:42.599Z,38.00
2023-05-01T06:50:17.385Z,32.20
2023-05-01T06:52:53.458Z,42.80
2023-05-01T06:55:33.732Z,35.00
2023-05-01T06:58:22.639Z,71.00
2023-05-01T07:01:01.123Z,41.20
2023-05-01T07:03:38.684Z,67.80
2023-05-01T07:06:13.698Z,42.10
2023-05-01T07:08:50.078Z,30.10
2023-05-01T07:11:28.375Z,33.60
2023-05-01T07:14:04.058Z,34.90
2023-05-01T07:16:38.665Z,39.90
2023-05-01T07:19:16.678Z,40.20
2023-05-01T07:21:46.089Z,34.60
2023-05-01T07:24:20.394Z,24.70
2023-05-01T07:26:56.187Z,40.40
2023-05-01T07:29:33.186Z,44.00
2023-05-01T07:32:02.947Z,46.10
2023-05-01T07:34:37.599Z,40.30
2023-05-01T07:37:13.395Z,34.90
2023-05-01T07:39:41.038Z,41.70
2023-05-01T07:42:08.045Z,26.30
2023-05-01T07:44:43.228Z,22.20
2023-05-01T07:47:18.432Z,18.60
2023-05-01T07:49:54.964Z,19.60
2023-05-01T07:52:29.515Z,32.30
2023-05-01T07:54:56.946Z,23.20
2023-05-01T07:57:35.476Z,21.90
2023-05-01T08:00:13.264Z,19.50
2023-05-01T08:02:28.268Z,31.30
2023-05-01T08:05:05.766Z,10.00
2023-05-01T08:07:41.393Z,7.40
2023-05-01T08:10:04.856Z,6.60
2023-05-01T08:12:42.277Z,12.90
2023-05-01T08:15:30.689Z,18.30
2023-05-01T08:18:05.775Z,12.20
2023-05-01T08:20:42.610Z,16.20
2023-05-01T08:23:15.777Z,14.50
2023-05-01T08:25:52.879Z,14.10
2023-05-01T08:28:26.741Z,23.50
2023-05-01T08:31:04.984Z,28.40
2023-05-01T08:33:43.493Z,16.40
2023-05-01T08:36:21.168Z,18.80
2023-05-01T08:38:44.939Z,17.50
2023-05-01T08:41:20.280Z,18.40
2023-05-01T08:43:54.728Z,13.60
2023-05-01T08:46:36.802Z,12.30
2023-05-01T08:49:15.637Z,15.20
2023-05-01T08:51:40.289Z,12.40
2023-05-01T08:54:16.039Z,11.30
2023-05-01T08:56:56.223Z,9.50
2023-05-01T08:59:24.761Z,7.70
2023-05-01T09:01:49.853Z,13.30
2023-05-01T09:04:27.111Z,7.20
2023-05-01T09:07:05.333Z,5.90
2023-05-01T09:09:40.778Z,12.60
2023-05-01T09:12:24.701Z,15.50
2023-05-01T09:14:59.780Z,22.20
2023-05-01T09:17:35.761Z,15.90
2023-05-01T09:20:12.322Z,24.10
2023-05-01T09:22:46.778Z,29.70
2023-05-01T09:25:22.591Z,33.00
2023-05-01T09:27:45.133Z,31.90
2023-05-01T09:30:39.174Z,41.10
2023-05-01T09:33:14.907Z,29.00
2023-05-01T09:36:00.925Z,30.90
2023-05-01T09:38:38.952Z,44.50
2023-05-01T09:41:13.684Z,30.00
2023-05-01T09:44:01.214Z,36.60
2023-05-01T09:46:26.953Z,28.70
2023-05-01T09:49:06.274Z,27.50
2023-05-01T09:51:35.972Z,20.70
2023-05-01T09:54:22.624Z,22.20
2023-05-01T09:56:57.786Z,14.80
2023-05-01T09:59:35.989Z,12.10
2023-05-01T10:02:04.203Z,14.20
2023-05-01T10:04:42.384Z,9.70
2023-05-01T10:07:22.656Z,7.50
2023-05-01T10:10:00.727Z,4.30
2023-05-01T10:12:39.818Z,5.80
2023-05-01T10:15:24.736Z,5.30
2023-05-01T10:18:00.908Z,4.70
2023-05-01T10:20:37.374Z,2.40
2023-05-01T10:23:01.519Z,2.80
2023-05-01T10:25:40.488Z,1.40
2023-05-01T10:28:16.251Z,9.50
2023-05-01T10:30:52.753Z,3.60
2023-05-01T10:33:27.164Z,5.70
2023-05-01T10:36:08.154Z,4.80
2023-05-01T10:38:49.564Z,2.40
2023-05-01T10:42:00.307Z,1.80
2023-05-01T10:44:35.933Z,4.90
2023-05-01T10:47:00.179Z,4.20
2023-05-01T10:49:50.411Z,2.70
2023-05-01T10:52:25.315Z,2.70
2023-05-01T10:54:53.293Z,2.40
2023-05-01T10:57:49.205Z,4.60
2023-05-01T11:00:28.381Z,1.40
2023-05-01T11:03:41.630Z,1.40
2023-05-01T11:06:16.793Z,2.40
2023-05-01T11:08:52.217Z,2.10
2023-05-01T11:11:52.774Z,3.70
2023-05-01T11:14:29.117Z,3.10
2023-05-01T11:17:05.243Z,1.00
2023-05-01T11:19:57.883Z,1.00
2023-05-01T11:22:32.567Z,2.00
2023-05-01T11:25:08.854Z,2.90
2023-05-01T11:27:50.246Z,2.30
2023-05-01T11:30:19.555Z,1.30
2023-05-01T11:32:55.061Z,2.10
2023-05-01T11:35:25.117Z,2.40
2023-05-01T11:38:00.192Z,1.50
2023-05-01T11:40:38.272Z,4.20
2023-05-01T11:43:13.916Z,2.30
2023-05-01T11:45:56.896Z,1.30
2023-05-01T11:48:33.710Z,6.20
2023-05-01T11:51:19.450Z,0.80
2023-05-01T11:53:45.106Z,1.70
2023-05-01T11:56:28.894Z,1.00
2023-05-01T11:59:04.879Z,1.70
2023-05-01T12:01:41.056Z,1.30
2023-05-01T12:04:16.326Z,1.10
2023-05-01T12:06:53.994Z,0.70
2023-05-01T12:09:25.184Z,0.50
2023-05-01T12:12:04.769Z,0.40
2023-05-01T12:14:40.677Z,1.90
2023-05-01T12:17:15.211Z,0.70
2023-05-01T12:19:39.127Z,1.20
2023-05-01T12:22:16.829Z,0.90
2023-05-01T12:25:02.012Z,2.20
2023-05-01T12:27:47.104Z,0.50
2023-05-01T12:30:32.129Z,0.40
2023-05-01T12:33:15.360Z,0.60
2023-05-01T12:35:52.086Z,1.40
2023-05-01T12:38:27.832Z,0.90
2023-05-01T12:43:41.449Z,1.80
2023-05-01T12:46:20.649Z,0.40
2023-05-01T12:48:55.716Z,1.70
2023-05-01T12:51:28.761Z,1.50
2023-05-01T12:54:03.669Z,1.00
2023-05-01T12:56:39.803Z,0.30
2023-05-01T12:59:23.824Z,0.80
2023-05-01T13:02:03.978Z,0.70
2023-05-01T13:04:39.871Z,0.40
2023-05-01T13:07:21.857Z,0.40
2023-05-01T13:09:54.834Z,1.20
2023-05-01T13:12:30.679Z,0.70
2023-05-01T13:15:05.748Z,0.90
2023-05-01T13:17:41.315Z,0.80
2023-05-01T13:20:18.773Z,0.40
2023-05-01T13:22:53.979Z,1.60
2023-05-01T13:25:28.541Z,0.30
2023-05-01T13:27:56.117Z,1.20
2023-05-01T13:30:40.625Z,0.40
2023-05-01T13:33:15.607Z,0.40
2023-05-01T13:35:49.706Z,0.30
2023-05-01T13:38:26.518Z,0.30
2023-05-01T13:41:02.878Z,0.50
2023-05-01T13:43:29.422Z,0.90
2023-05-01T13:46:08.815Z,1.40
2023-05-01T13:48:43.891Z,0.70
2023-05-01T13:51:23.754Z,1.10
2023-05-01T13:53:59.651Z,0.40
2023-05-01T13:56:35.408Z,0.30
2023-05-01T14:01:59.351Z,0.30
2023-05-01T14:04:34.570Z,0.40
2023-05-01T14:07:09.463Z,0.30
2023-05-01T14:09:48.041Z,0.30
2023-05-01T14:12:27.217Z,0.90
2023-05-01T14:15:03.119Z,0.90
2023-05-01T14:17:40.176Z,2.20
2023-05-01T14:20:16.959Z,1.50
2023-05-01T14:22:53.129Z,0.50
2023-05-01T14:25:36.168Z,0.30
2023-05-01T14:30:45.037Z,1.20
2023-05-01T14:33:20.188Z,0.30
2023-05-01T14:35:54.077Z,0.40
2023-05-01T14:38:39.924Z,2.20
2023-05-01T14:41:18.473Z,0.90
2023-05-01T14:43:44.631Z,0.70
2023-05-01T14:46:27.230Z,4.50
2023-05-01T14:48:51.036Z,6.60
2023-05-01T14:51:27.823Z,11.60
2023-05-01T14:53:55.687Z,10.40
2023-05-01T14:56:31.986Z,9.50
2023-05-01T14:58:58.790Z,10.40
2023-05-01T15:01:29.128Z,6.00
2023-05-01T15:04:04.441Z,8.00
2023-05-01T15:06:40.064Z,3.90
2023-05-01T15:09:18.142Z,4.40
2023-05-01T15:11:54.182Z,12.30
2023-05-01T15:14:18.900Z,31.10
2023-05-01T15:16:46.225Z,32.70
2023-05-01T15:19:21.434Z,52.80
2023-05-01T15:21:57.126Z,40.40
2023-05-01T15:24:32.618Z,22.80
2023-05-01T15:27:09.125Z,18.60
2023-05-01T15:29:45.984Z,16.00
2023-05-01T15:32:20.706Z,9.70
2023-05-01T15:34:58.183Z,11.90
2023-05-01T15:37:34.499Z,15.60
2023-05-01T15:40:02.281Z,24.10
2023-05-01T15:42:40.202Z,15.20
2023-05-01T15:45:17.768Z,31.10
2023-05-01T15:47:41.492Z,20.30
2023-05-01T15:50:17.217Z,12.10
2023-05-01T15:52:53.371Z,19.90
2023-05-01T15:55:23.191Z,10.90
2023-05-01T15:57:59.445Z,15.60
2023-05-01T16:00:37.130Z,15.10
2023-05-01T16:03:14.161Z,35.40
2023-05-01T16:05:40.474Z,29.70
2023-05-01T16:08:18.817Z,23.70
2023-05-01T16:10:55.812Z,13.10
2023-05-01T16:13:24.058Z,33.00
2023-05-01T16:15:51.167Z,28.50
2023-05-01T16:18:28.549Z,14.20
2023-05-01T16:21:10.509Z,20.20
2023-05-01T16:23:46.585Z,23.50
2023-05-01T16:26:28.197Z,19.80
2023-05-01T16:28:53.069Z,23.60
2023-05-01T16:31:31.425Z,14.70
2023-05-01T16:34:09.725Z,19.30
2023-05-01T16:36:38.074Z,42.90
2023-05-01T16:39:16.214Z,21.90
2023-05-01T16:41:54.823Z,35.90
2023-05-01T16:44:21.334Z,35.40
2023-05-01T16:47:00.192Z,22.50
2023-05-01T16:49:36.033Z,36.20
2023-05-01T16:52:15.024Z,22.20
2023-05-01T16:54:49.687Z,27.70
2023-05-01T16:57:25.627Z,26.30
2023-05-01T17:00:04.372Z,10.30
2023-05-01T17:02:40.569Z,15.30
2023-05-01T17:05:17.004Z,19.10
2023-05-01T17:07:52.405Z,17.70
2023-05-01T17:10:28.175Z,23.20
2023-05-01T17:13:02.110Z,18.30
2023-05-01T17:15:36.814Z,43.10
2023-05-01T17:18:11.583Z,15.30
2023-05-01T17:20:49.773Z,23.20
2023-05-01T17:23:13.906Z,9.70
2023-05-01T17:25:49.020Z,12.40
2023-05-01T17:28:23.073Z,31.90
2023-05-01T17:31:00.935Z,13.90
2023-05-01T17:33:37.670Z,4.50
2023-05-01T17:36:12.838Z,18.70
2023-05-01T17:38:48.006Z,11.50
2023-05-01T17:41:11.812Z,14.90
2023-05-01T17:43:47.918Z,24.70
2023-05-01T17:46:11.964Z,37.60
2023-05-01T17:48:49.240Z,15.80
2023-05-01T17:51:25.400Z,16.00
2023-05-01T17:54:00.618Z,16.40
2023-05-01T17:56:34.456Z,27.60
2023-05-01T17:59:12.433Z,14.20
2023-05-01T18:01:49.714Z,24.60
2023-05-01T18:04:26.204Z,24.70
2023-05-01T18:07:00.303Z,10.50
2023-05-01T18:09:36.074Z,4.80
2023-05-01T18:12:14.185Z,7.60
2023-05-01T18:14:49.334Z,20.70
2023-05-01T18:17:25.292Z,16.50
2023-05-01T18:19:53.825Z,19.50
2023-05-01T18:22:29.103Z,8.10
2023-05-01T18:25:05.152Z,14.20
2023-05-01T18:27:40.254Z,18.50
2023-05-01T18:30:19.232Z,11.70
2023-05-01T18:32:48.391Z,19.50
2023-05-01T18:35:24.547Z,24.60
2023-05-01T18:38:01.973Z,8.90
2023-05-01T18:40:37.162Z,36.30
2023-05-01T18:43:04.454Z,14.50
2023-05-01T18:45:40.878Z,18.00
2023-05-01T18:48:15.277Z,33.10
2023-05-01T18:51:07.070Z,20.30
2023-05-01T18:53:44.646Z,19.00
2023-05-01T18:56:19.163Z,17.30
2023-05-01T18:58:54.440Z,23.00
2023-05-01T19:01:27.610Z,16.30
2023-05-01T19:04:02.720Z,24.60
2023-05-01T19:06:36.787Z,22.50
2023-05-01T19:08:57.305Z,24.60
2023-05-01T19:11:27.605Z,24.90
2023-05-01T19:14:02.005Z,25.40
2023-05-01T19:16:36.543Z,22.00
2023-05-01T19:19:11.263Z,20.00
2023-05-01T19:21:39.150Z,10.10
2023-05-01T19:23:57.693Z,21.40
2023-05-01T19:26:32.277Z,21.20
2023-05-01T19:29:07.793Z,31.80
2023-05-01T19:31:44.874Z,30.20
2023-05-01T19:34:19.741Z,25.40
2023-05-01T19:36:38.512Z,19.50
2023-05-01T19:39:13.503Z,16.00
2023-05-01T19:41:49.275Z,14.20
2023-05-01T19:44:23.226Z,24.90
2023-05-01T19:46:57.418Z,12.20
2023-05-01T19:49:32.407Z,34.90
2023-05-01T19:51:56.452Z,29.40
2023-05-01T19:54:30.505Z,24.00
2023-05-01T19:57:04.734Z,15.90
2023-05-01T19:59:42.733Z,12.20
2023-05-01T20:02:22.559Z,16.80
2023-05-01T20:04:50.886Z,29.50
2023-05-01T20:07:14.657Z,17.00
2023-05-01T20:09:49.274Z,16.70
2023-05-01T20:12:17.344Z,15.50
2023-05-01T20:14:52.467Z,27.10
2023-05-01T20:17:28.665Z,31.30
2023-05-01T20:20:02.375Z,20.60
2023-05-01T20:22:26.577Z,29.20
2023-05-01T20:25:01.237Z,25.30
2023-05-01T20:27:36.303Z,16.20
2023-05-01T20:30:13.990Z,13.70
2023-05-01T20:32:50.336Z,18.90
2023-05-01T20:35:26.907Z,15.50
2023-05-01T20:38:01.639Z,16.50
2023-05-01T20:40:37.023Z,26.30
2023-05-01T20:43:10.767Z,17.20
2023-05-01T20:45:45.933Z,15.40
2023-05-01T20:48:22.969Z,13.60
2023-05-01T20:50:58.000Z,25.40
2023-05-01T20:53:32.397Z,26.40
2023-05-01T20:56:08.700Z,15.80
2023-05-01T20:58:43.363Z,18.00
2023-05-01T21:01:11.614Z,19.50
2023-05-01T21:03:46.209Z,24.30
2023-05-01T21:06:21.663Z,23.10
2023-05-01T21:08:50.996Z,29.60
2023-05-01T21:11:25.065Z,21.80
2023-05-01T21:13:51.802Z,23.30
2023-05-01T21:16:28.927Z,15.10
2023-05-01T21:19:03.447Z,24.60
2023-05-01T21:21:42.426Z,20.40
2023-05-01T21:24:05.564Z,24.70
2023-05-01T21:26:41.134Z,19.50
2023-05-01T21:29:16.349Z,18.80
2023-05-01T21:31:43.316Z,28.80
2023-05-01T21:34:12.407Z,22.30
2023-05-01T21:36:36.335Z,21.90
2023-05-01T21:39:03.871Z,19.20
2023-05-01T21:41:39.065Z,33.40
2023-05-01T21:44:01.677Z,24.20
2023-05-01T21:46:30.453Z,27.10
2023-05-01T21:48:59.492Z,17.50
2023-05-01T21:51:33.318Z,10.60
2023-05-01T21:54:10.837Z,18.00
2023-05-01T21:56:45.713Z,18.00
2023-05-01T21:59:13.538Z,25.60
2023-05-01T22:01:42.457Z,18.40
2023-05-01T22:04:19.605Z,14.80
2023-05-01T22:06:54.035Z,13.00
2023-05-01T22:09:23.146Z,18.70
2023-05-01T22:12:00.005Z,11.30
2023-05-01T22:14:46.695Z,16.80
2023-05-01T22:17:10.981Z,25.60
2023-05-01T22:19:45.928Z,14.90
2023-05-01T22:22:13.753Z,19.90
2023-05-01T22:24:48.284Z,17.70
2023-05-01T22:27:14.706Z,14.60
2023-05-01T22:29:50.611Z,24.20
2023-05-01T22:32:25.519Z,20.10
2023-05-01T22:35:00.325Z,17.80
2023-05-01T22:37:34.148Z,12.80
2023-05-01T22:40:01.800Z,23.80
2023-05-01T22:42:36.515Z,23.80
2023-05-01T22:45:14.320Z,23.20
2023-05-01T22:47:41.532Z,16.20
2023-05-01T22:50:06.751Z,26.10
2023-05-01T22:52:41.609Z,19.70
2023-05-01T22:55:16.030Z,6.00
2023-05-01T22:57:50.936Z,12.70
2023-05-01T23:00:28.050Z,15.40
2023-05-01T23:02:51.518Z,30.60
2023-05-01T23:05:26.075Z,13.60
2023-05-01T23:07:49.175Z,20.50
2023-05-01T23:10:19.007Z,23.90
2023-05-01T23:12:49.701Z,19.30
2023-05-01T23:15:26.120Z,16.40
2023-05-01T23:17:59.674Z,26.20
2023-05-01T23:20:28.603Z,20.20
2023-05-01T23:23:06.815Z,15.00
2023-05-01T23:25:31.575Z,18.70
2023-05-01T23:28:07.313Z,25.80
2023-05-01T23:30:43.945Z,14.90
2023-05-01T23:33:21.652Z,23.80
2023-05-01T23:35:49.068Z,14.40
2023-05-01T23:38:25.758Z,6.40
2023-05-01T23:41:01.277Z,18.30
2023-05-01T23:43:36.860Z,12.70
2023-05-01T23:46:03.846Z,8.00
2023-05-01T23:48:39.307Z,4.60
2023-05-01T23:51:13.968Z,8.30
2023-05-01T23:53:40.889Z,6.20
2023-05-01T23:56:17.538Z,12.30
2023-05-01T23:58:53.098Z,10.90
